Time;durP1;ratioP1;P1;durP2;ratioP2;P2;SDS_P1;SDS_P2;PMS_P1;PMS_P2;Temp;Humidity;BMP_temperature;BMP_pressure;BME280_temperature;BME280_humidity;BME280_pressure;Samples;Min_cycle;Max_cycle;Signal;HPM_P1;HPM_P2
2023/05/02 00:01:26;;;;;;;2.20;1.92;;;;;;;13.08;66.01;101300.28;5192783;28;20049;-86
2023/05/02 00:04:17;;;;;;;2.75;2.03;;;;;;;13.11;66.13;101300.19;5198682;28;20409;-85
2023/05/02 00:07:08;;;;;;;4.05;2.88;;;;;;;13.09;66.82;101302.03;5182293;28;20041;-83
2023/05/02 00:10:02;;;;;;;3.33;1.42;;;;;;;13.05;66.60;101303.00;5177428;28;20881;-85
2023/05/02 00:12:52;;;;;;;2.58;1.95;;;;;;;12.89;67.24;101311.31;5191102;28;20750;-84
2023/05/02 00:15:43;;;;;;;2.08;1.98;;;;;;;12.88;66.77;101308.75;5191398;28;20025;-85
2023/05/02 00:18:34;;;;;;;2.28;2.15;;;;;;;12.80;66.85;101310.72;5191929;28;20091;-84
2023/05/02 00:21:28;;;;;;;1.90;1.77;;;;;;;12.35;70.43;101312.72;5192297;28;20045;-85
2023/05/02 00:24:18;;;;;;;2.85;2.65;;;;;;;12.06;72.12;101316.06;5175836;28;20091;-84
2023/05/02 00:27:09;;;;;;;4.72;3.47;;;;;;;12.04;71.65;101320.50;5194363;28;20084;-84
2023/05/02 00:30:00;;;;;;;4.05;2.50;;;;;;;11.62;74.63;101329.31;5191723;28;20042;-84
2023/05/02 00:32:53;;;;;;;2.25;2.08;;;;;;;12.14;71.07;101327.28;5181363;28;20038;-84
2023/05/02 00:35:43;;;;;;;4.72;3.50;;;;;;;11.64;74.30;101335.41;5184734;28;20625;-84
2023/05/02 00:38:34;;;;;;;2.85;2.15;;;;;;;11.56;74.72;101335.56;5177951;28;20091;-84
2023/05/02 00:41:25;;;;;;;1.67;1.58;;;;;;;11.33;76.57;101350.03;5181195;28;20040;-84
2023/05/02 00:44:16;;;;;;;2.22;2.13;;;;;;;11.38;76.33;101343.81;5191744;28;20149;-85
2023/05/02 00:47:07;;;;;;;3.30;3.08;;;;;;;11.37;76.33;101345.59;5180946;28;20065;-83
2023/05/02 00:50:04;;;;;;;3.38;2.97;;;;;;;11.06;78.78;101351.44;5191315;28;20072;-84
2023/05/02 00:52:54;;;;;;;2.55;2.35;;;;;;;11.06;78.88;101356.72;5193299;28;20048;-84
2023/05/02 00:55:46;;;;;;;1.70;1.60;;;;;;;11.40;77.27;101360.41;5193660;28;20636;-83
2023/05/02 00:58:39;;;;;;;6.03;2.42;;;;;;;11.43;77.33;101344.59;5181263;28;20042;-84
2023/05/02 01:02:02;;;;;;;2.87;2.57;;;;;;;11.25;78.01;101351.06;5189867;28;20598;-83
2023/05/02 01:05:02;;;;;;;4.13;1.90;;;;;;;11.67;73.59;101350.22;5189691;28;20041;-83
2023/05/02 01:07:59;;;;;;;2.90;2.60;;;;;;;11.70;74.33;101358.03;5190682;28;20132;-83
2023/05/02 01:11:13;;;;;;;2.95;2.75;;;;;;;11.25;78.21;101361.56;5184670;28;20057;-84
2023/05/02 01:14:07;;;;;;;2.97;2.72;;;;;;;11.64;74.13;101367.78;5204605;28;20036;-83
2023/05/02 01:17:04;;;;;;;2.92;2.72;;;;;;;11.84;72.07;101373.50;5194035;28;20069;-83
2023/05/02 01:20:04;;;;;;;2.58;2.40;;;;;;;11.90;72.73;101370.78;5181752;28;20129;-84
2023/05/02 01:23:03;;;;;;;5.97;3.22;;;;;;;12.03;70.99;101371.38;5187527;28;20099;-82
2023/05/02 01:26:09;;;;;;;3.67;3.33;;;;;;;11.91;72.23;101362.84;5196285;28;20092;-82
2023/05/02 01:29:02;;;;;;;3.00;2.80;;;;;;;12.07;72.47;101375.66;5193335;28;20041;-82
2023/05/02 01:31:55;;;;;;;9.30;4.00;;;;;;;12.10;71.50;101375.63;5180474;28;20037;-81
2023/05/02 01:34:47;;;;;;;7.30;2.40;;;;;;;11.88;72.54;101383.94;5183643;28;20052;-81
2023/05/02 01:37:40;;;;;;;2.95;2.65;;;;;;;11.82;75.22;101382.28;5196903;28;20092;-82
2023/05/02 01:40:33;;;;;;;2.53;2.38;;;;;;;11.79;73.71;101389.38;5180540;28;20473;-81
2023/05/02 01:43:25;;;;;;;4.03;3.50;;;;;;;11.56;76.11;101396.00;5178858;28;20030;-83
2023/05/02 01:46:19;;;;;;;4.65;4.00;;;;;;;11.50;77.00;101390.88;5198962;28;20041;-83
2023/05/02 01:49:10;;;;;;;3.42;2.58;;;;;;;11.46;77.39;101391.81;5203883;28;20052;-85
2023/05/02 01:52:10;;;;;;;1.92;1.83;;;;;;;11.78;74.59;101392.91;5198951;28;20048;-82
2023/05/02 01:55:03;;;;;;;5.97;3.53;;;;;;;11.41;79.15;101393.69;5177993;28;20057;-83
2023/05/02 01:57:55;;;;;;;2.95;2.70;;;;;;;11.64;75.94;101396.72;5178086;28;20099;-83
2023/05/02 02:00:47;;;;;;;3.97;2.70;;;;;;;11.43;78.49;101407.66;5173900;28;20038;-84
2023/05/02 02:03:38;;;;;;;3.03;2.70;;;;;;;11.68;75.61;101408.03;5195842;28;20029;-83
2023/05/02 02:06:30;;;;;;;3.78;3.47;;;;;;;11.81;74.88;101403.38;5185085;28;20329;-84
2023/05/02 02:09:21;;;;;;;2.33;2.00;;;;;;;11.86;73.62;101406.75;5182775;28;20034;-84
2023/05/02 02:12:35;;;;;;;2.83;2.53;;;;;;;11.80;75.52;101409.53;5196163;28;20064;-83
2023/05/02 02:15:27;;;;;;;5.80;3.53;;;;;;;11.60;76.91;101413.44;5195448;28;20061;-83
2023/05/02 02:18:25;;;;;;;2.67;2.45;;;;;;;11.88;73.05;101414.63;5184203;28;20038;-83
2023/05/02 02:21:19;;;;;;;9.73;3.03;;;;;;;11.76;75.05;101410.50;5190984;28;20125;-83
2023/05/02 02:24:11;;;;;;;2.95;2.50;;;;;;;11.80;76.57;101413.03;5198179;28;20037;-84
2023/05/02 02:27:02;;;;;;;4.80;1.85;;;;;;;11.91;74.17;101415.44;5195179;28;20403;-83
2023/05/02 02:29:53;;;;;;;6.63;1.65;;;;;;;12.00;73.20;101410.91;5193588;28;20482;-83
2023/05/02 02:32:44;;;;;;;4.97;3.22;;;;;;;12.01;73.12;101412.63;5183817;28;20430;-83
2023/05/02 02:35:41;;;;;;;2.70;1.55;;;;;;;12.03;72.60;101424.84;5183472;28;20033;-83
2023/05/02 02:38:55;;;;;;;2.45;2.25;;;;;;;12.14;71.71;101424.59;5186230;28;20038;-83
2023/05/02 02:42:01;;;;;;;2.67;2.47;;;;;;;12.10;73.19;101426.44;5181711;28;20048;-83
2023/05/02 02:45:23;;;;;;;2.58;2.42;;;;;;;12.18;72.33;101418.41;5192607;28;20041;-83
2023/05/02 02:48:41;;;;;;;2.25;1.92;;;;;;;12.14;73.93;101411.44;5178195;28;20037;-85
2023/05/02 02:51:38;;;;;;;2.47;1.67;;;;;;;12.12;74.01;101418.50;5199008;28;20038;-83
2023/05/02 02:54:37;;;;;;;2.92;2.72;;;;;;;12.14;74.71;101427.25;5195298;28;20038;-82
2023/05/02 02:57:44;;;;;;;6.78;3.95;;;;;;;12.21;72.82;101428.81;5176802;28;20164;-84
2023/05/02 03:00:35;;;;;;;3.15;2.30;;;;;;;12.31;71.64;101426.88;5178309;28;20050;-84
2023/05/02 03:03:27;;;;;;;7.80;3.40;;;;;;;12.31;71.81;101436.50;5177223;28;20064;-83
2023/05/02 03:06:19;;;;;;;1.95;1.85;;;;;;;12.34;70.90;101436.47;5192580;28;20041;-83
2023/05/02 03:09:17;;;;;;;3.38;3.17;;;;;;;12.40;71.09;101444.19;5180689;28;20314;-86
2023/05/02 03:12:08;;;;;;;3.35;3.05;;;;;;;12.28;71.65;101446.19;5197127;28;20052;-82
2023/05/02 03:15:14;;;;;;;4.72;4.28;;;;;;;12.29;71.85;101449.72;5199405;28;20115;-83
2023/05/02 03:18:05;;;;;;;3.60;3.28;;;;;;;12.35;71.19;101451.34;5196507;28;20037;-84
2023/05/02 03:20:56;;;;;;;2.17;1.73;;;;;;;12.32;71.35;101454.03;5177909;28;20590;-83
2023/05/02 03:23:47;;;;;;;2.08;1.98;;;;;;;12.39;71.05;101450.38;5190559;28;20166;-85
2023/05/02 03:26:37;;;;;;;3.42;3.03;;;;;;;12.35;71.02;101453.97;5180797;28;20060;-85
2023/05/02 03:29:28;;;;;;;2.22;1.80;;;;;;;12.39;71.06;101455.63;5179344;28;20134;-85
2023/05/02 03:32:19;;;;;;;4.85;3.03;;;;;;;12.29;71.78;101460.25;5197770;28;20038;-85
2023/05/02 03:35:10;;;;;;;4.70;3.58;;;;;;;12.31;72.07;101460.19;5193453;28;20029;-84
2023/05/02 03:38:01;;;;;;;4.18;3.42;;;;;;;12.33;71.56;101456.63;5199789;28;20447;-83
2023/05/02 03:40:51;;;;;;;3.15;2.70;;;;;;;12.25;72.95;101461.19;5182098;28;20021;-84
2023/05/02 03:43:42;;;;;;;5.00;2.83;;;;;;;12.27;72.03;101462.88;5186018;28;20078;-85
2023/05/02 03:46:33;;;;;;;4.18;2.10;;;;;;;12.27;71.75;101464.66;5184207;28;20317;-82
2023/05/02 03:49:24;;;;;;;2.65;2.45;;;;;;;12.39;71.20;101468.78;5186849;28;20033;-85
2023/05/02 03:52:14;;;;;;;3.63;3.00;;;;;;;12.45;71.96;101468.63;5200098;28;20048;-85
2023/05/02 03:55:06;;;;;;;4.57;3.00;;;;;;;12.33;71.95;101468.94;5183451;28;20110;-84
2023/05/02 03:57:57;;;;;;;2.17;2.03;;;;;;;12.34;71.50;101474.16;5196099;28;20394;-83
2023/05/02 04:00:48;;;;;;;1.63;1.52;;;;;;;11.79;76.95;101478.78;5181181;28;20072;-83
2023/05/02 04:03:39;;;;;;;3.40;2.58;;;;;;;12.19;72.89;101477.97;5200106;28;20579;-87
2023/05/02 04:06:30;;;;;;;2.38;2.05;;;;;;;12.21;72.91;101484.06;5182632;28;20045;-87
2023/05/02 04:09:24;;;;;;;10.25;2.60;;;;;;;12.21;72.61;101485.84;5192250;28;20038;-86
2023/05/02 04:12:15;;;;;;;2.80;1.85;;;;;;;12.32;71.65;101488.25;5188313;28;20132;-85
2023/05/02 04:15:06;;;;;;;2.40;2.00;;;;;;;12.16;73.18;101496.47;5188120;28;20041;-87
2023/05/02 04:17:57;;;;;;;4.05;2.97;;;;;;;12.27;72.39;101491.81;5186762;28;20439;-86
2023/05/02 04:20:49;;;;;;;5.05;1.92;;;;;;;12.26;72.75;101481.34;5186140;28;20044;-86
2023/05/02 04:23:40;;;;;;;1.05;1.05;;;;;;;12.28;72.18;101485.66;5186782;28;20124;-88
2023/05/02 04:26:30;;;;;;;2.17;1.98;;;;;;;12.32;72.38;101493.50;5187496;28;20486;-85
2023/05/02 04:29:21;;;;;;;3.65;2.08;;;;;;;12.26;71.85;101505.91;5193598;28;20259;-85
2023/05/02 04:32:12;;;;;;;3.83;2.35;;;;;;;12.21;73.26;101513.00;5175322;28;20095;-84
2023/05/02 04:35:03;;;;;;;2.70;2.30;;;;;;;12.27;72.02;101519.91;5179816;28;20496;-84
2023/05/02 04:37:54;;;;;;;2.30;2.10;;;;;;;11.98;75.56;101520.53;5164591;28;20130;-83
2023/05/02 04:40:45;;;;;;;3.78;3.47;;;;;;;11.85;75.28;101528.63;5187350;28;20036;-87
2023/05/02 04:43:36;;;;;;;3.67;2.33;;;;;;;11.79;76.05;101531.38;5193401;28;20041;-85
2023/05/02 04:46:27;;;;;;;2.72;2.08;;;;;;;11.47;78.53;101536.34;5187785;28;20094;-85
2023/05/02 04:49:18;;;;;;;1.30;0.93;;;;;;;11.39;78.67;101546.13;5205148;28;20407;-84
2023/05/02 04:52:09;;;;;;;2.40;2.25;;;;;;;11.53;76.80;101550.25;5197319;28;20034;-83
2023/05/02 04:55:00;;;;;;;4.90;2.70;;;;;;;11.81;74.56;101550.63;5186677;28;20069;-87
2023/05/02 04:57:51;;;;;;;2.13;1.42;;;;;;;11.90;73.47;101553.06;5187047;28;20140;-83
2023/05/02 05:00:41;;;;;;;1.30;1.20;;;;;;;11.95;73.18;101556.47;5186507;28;20037;-85
2023/05/02 05:03:32;;;;;;;2.45;1.63;;;;;;;11.81;74.78;101558.50;5180102;28;20443;-86
2023/05/02 05:06:23;;;;;;;0.90;0.90;;;;;;;11.79;74.37;101558.53;5178218;28;20262;-84
2023/05/02 05:09:14;;;;;;;1.63;1.52;;;;;;;11.80;75.37;101562.03;5184994;28;20040;-85
2023/05/02 05:12:05;;;;;;;1.73;1.63;;;;;;;11.78;75.24;101566.44;5185842;28;20340;-84
2023/05/02 05:14:56;;;;;;;2.00;1.80;;;;;;;11.24;79.43;101573.50;5177684;28;20403;-86
2023/05/02 05:17:47;;;;;;;1.60;1.50;;;;;;;11.40;79.04;101582.03;5202911;28;20038;-87
2023/05/02 05:20:38;;;;;;;2.08;1.85;;;;;;;11.22;79.56;101577.91;5191326;28;20110;-87
2023/05/02 05:23:28;;;;;;;1.15;1.05;;;;;;;11.37;79.53;101581.16;5187173;28;20034;-87
2023/05/02 05:26:20;;;;;;;2.28;2.08;;;;;;;11.22;80.53;101582.31;5185835;28;20041;-85
2023/05/02 05:29:11;;;;;;;1.92;1.83;;;;;;;11.56;77.13;101590.50;5185259;28;20037;-85
2023/05/02 05:32:01;;;;;;;1.02;0.98;;;;;;;11.23;81.08;101587.53;5197643;28;20116;-87
2023/05/02 05:34:52;;;;;;;1.60;1.50;;;;;;;11.53;77.84;101592.31;5185880;28;20061;-85
2023/05/02 05:37:43;;;;;;;2.42;1.98;;;;;;;11.74;75.10;101591.91;5181351;28;20113;-84
2023/05/02 05:40:34;;;;;;;2.03;1.90;;;;;;;11.77;76.56;101591.88;5191539;28;20500;-86
2023/05/02 05:43:25;;;;;;;4.30;3.85;;;;;;;11.94;74.30;101604.69;5188807;28;20045;-88
2023/05/02 05:46:16;;;;;;;25.15;1.73;;;;;;;11.69;78.59;101603.44;5194284;28;20041;-87
2023/05/02 05:49:06;;;;;;;3.47;3.15;;;;;;;11.59;78.79;101607.97;5207646;28;20053;-87
2023/05/02 05:51:57;;;;;;;2.22;2.08;;;;;;;11.70;76.53;101615.66;5193015;28;20113;-85
2023/05/02 05:54:48;;;;;;;2.50;2.30;;;;;;;11.56;80.05;101615.91;5218739;28;20052;-85
2023/05/02 05:57:39;;;;;;;1.63;1.27;;;;;;;11.82;76.15;101620.72;5185296;28;20048;-87
2023/05/02 06:00:31;;;;;;;2.88;2.67;;;;;;;11.98;74.56;101621.34;5188823;28;20680;-85
2023/05/02 06:03:21;;;;;;;2.38;1.88;;;;;;;11.98;75.70;101620.47;5192246;28;20034;-85
2023/05/02 06:06:12;;;;;;;1.80;1.70;;;;;;;11.80;77.25;101627.75;5196153;28;20029;-87
2023/05/02 06:09:03;;;;;;;2.20;2.03;;;;;;;11.89;76.33;101637.25;5195369;28;20050;-88
2023/05/02 06:11:54;;;;;;;1.55;1.48;;;;;;;11.61;79.08;101638.56;5192730;28;20045;-84
2023/05/02 06:14:44;;;;;;;1.85;1.75;;;;;;;11.58;79.26;101643.03;5191079;28;20051;-85
2023/05/02 06:17:35;;;;;;;1.67;1.58;;;;;;;11.33;81.27;101644.28;5205540;28;20328;-87
2023/05/02 06:20:26;;;;;;;2.47;1.55;;;;;;;11.22;82.39;101646.22;5190214;28;20547;-84
2023/05/02 06:23:16;;;;;;;0.98;0.98;;;;;;;11.29;81.40;101653.09;5193558;28;20041;-86
2023/05/02 06:26:08;;;;;;;1.27;1.17;;;;;;;11.20;81.55;101655.88;5204658;28;20049;-89
2023/05/02 06:29:01;;;;;;;0.73;0.73;;;;;;;11.25;81.03;101663.69;5190014;28;20047;-86
2023/05/02 06:31:54;;;;;;;1.65;1.55;;;;;;;11.26;81.37;101662.78;5184748;28;20041;-87
2023/05/02 06:34:45;;;;;;;2.80;1.30;;;;;;;11.30;80.87;101670.59;5186205;28;20038;-85
2023/05/02 06:37:36;;;;;;;0.77;0.77;;;;;;;11.46;80.56;101680.88;5186366;28;20041;-86
2023/05/02 06:40:27;;;;;;;1.30;1.08;;;;;;;11.59;78.21;101682.44;5187517;28;20026;-85
2023/05/02 06:43:18;;;;;;;0.47;0.47;;;;;;;11.52;77.61;101693.06;5184096;28;20045;-86
2023/05/02 06:46:09;;;;;;;0.22;0.22;;;;;;;11.46;77.57;101692.28;5189166;28;20068;-86
2023/05/02 06:49:00;;;;;;;0.82;0.82;;;;;;;11.37;77.46;101702.94;5185207;28;20523;-85
2023/05/02 06:51:50;;;;;;;0.52;0.52;;;;;;;11.54;76.18;101699.19;5201641;28;20048;-84
2023/05/02 06:54:41;;;;;;;0.75;0.57;;;;;;;11.17;77.33;101706.69;5199408;28;20053;-85
2023/05/02 06:57:32;;;;;;;2.47;0.98;;;;;;;11.37;77.24;101707.28;5186585;28;20588;-84
2023/05/02 07:00:23;;;;;;;1.55;1.17;;;;;;;11.27;77.35;101712.72;5192049;28;20270;-86
2023/05/02 07:03:14;;;;;;;0.32;0.32;;;;;;;11.31;76.27;101709.13;5196031;28;20034;-86
2023/05/02 07:06:04;;;;;;;0.73;0.73;;;;;;;11.42;75.87;101718.63;5212744;28;20029;-88
2023/05/02 07:08:55;;;;;;;0.50;0.50;;;;;;;11.27;76.83;101723.22;5188774;28;20373;-86
2023/05/02 07:11:46;;;;;;;0.30;0.30;;;;;;;11.25;75.70;101718.84;5192532;28;20454;-87
2023/05/02 07:14:38;;;;;;;0.20;0.20;;;;;;;11.51;74.66;101729.00;5205381;28;20045;-84
2023/05/02 07:17:29;;;;;;;0.80;0.75;;;;;;;11.44;74.92;101735.25;5185699;28;20059;-87
2023/05/02 07:20:19;;;;;;;1.85;0.50;;;;;;;11.38;74.83;101735.31;5197398;28;20042;-86
2023/05/02 07:23:10;;;;;;;0.55;0.55;;;;;;;11.27;75.92;101741.59;5193540;28;20041;-85
2023/05/02 07:26:01;;;;;;;0.40;0.40;;;;;;;11.40;75.98;101741.41;5202529;28;20085;-86
2023/05/02 07:28:52;;;;;;;1.00;0.98;;;;;;;11.13;75.68;101747.03;5187461;28;20048;-88
2023/05/02 07:31:43;;;;;;;0.77;0.77;;;;;;;11.24;76.17;101749.53;5186675;28;20227;-86
2023/05/02 07:34:33;;;;;;;0.38;0.38;;;;;;;11.39;75.25;101758.97;5194394;28;20044;-86
2023/05/02 07:37:24;;;;;;;0.47;0.40;;;;;;;11.51;74.56;101750.03;5177906;28;20084;-88
2023/05/02 07:40:15;;;;;;;0.30;0.30;;;;;;;11.59;74.50;101756.03;5184610;28;20029;-87
2023/05/02 07:43:06;;;;;;;14.80;2.70;;;;;;;11.71;73.14;101759.34;5188183;28;20061;-88
2023/05/02 07:45:57;;;;;;;0.63;0.63;;;;;;;11.46;73.27;101763.22;5187929;28;20029;-88
2023/05/02 07:48:47;;;;;;;0.75;0.75;;;;;;;11.36;73.63;101773.91;5208401;28;20056;-83
2023/05/02 07:51:39;;;;;;;3.08;1.15;;;;;;;11.57;73.81;101773.59;5202584;28;20237;-87
2023/05/02 07:54:29;;;;;;;3.75;1.17;;;;;;;11.65;72.79;101769.09;5210352;28;20056;-87
2023/05/02 07:57:20;;;;;;;0.30;0.30;;;;;;;11.59;71.21;101777.06;5193449;28;20041;-85
2023/05/02 08:00:12;;;;;;;0.30;0.30;;;;;;;11.42;70.61;101773.81;5186126;28;20060;-84
2023/05/02 08:03:03;;;;;;;0.30;0.30;;;;;;;11.75;70.63;101776.84;5201156;28;20045;-84
2023/05/02 08:05:54;;;;;;;0.65;0.65;;;;;;;11.88;70.07;101778.38;5189915;28;20301;-89
2023/05/02 08:08:44;;;;;;;0.30;0.30;;;;;;;11.76;70.00;101781.22;5187932;28;20053;-88
2023/05/02 08:11:35;;;;;;;0.30;0.30;;;;;;;11.77;68.60;101778.56;5193930;28;20577;-83
2023/05/02 08:14:26;;;;;;;0.75;0.68;;;;;;;11.76;68.12;101783.84;5191990;28;20038;-85
2023/05/02 08:17:17;;;;;;;0.40;0.40;;;;;;;11.84;68.37;101792.47;5183390;28;20048;-85
2023/05/02 08:20:08;;;;;;;0.52;0.52;;;;;;;11.93;68.10;101802.88;5183775;28;20543;-86
2023/05/02 08:22:59;;;;;;;0.95;0.50;;;;;;;11.82;67.21;101802.16;5174491;28;20049;-85
2023/05/02 08:25:49;;;;;;;0.30;0.30;;;;;;;11.81;68.30;101813.56;5181745;28;20038;-85
2023/05/02 08:28:40;;;;;;;0.32;0.32;;;;;;;11.93;68.48;101816.00;5183873;28;20045;-87
2023/05/02 08:31:31;;;;;;;0.40;0.40;;;;;;;11.82;68.10;101823.19;5195391;28;20050;-88
2023/05/02 08:34:22;;;;;;;0.25;0.25;;;;;;;11.67;67.83;101829.53;5197906;28;20037;-85
2023/05/02 08:37:12;;;;;;;0.40;0.40;;;;;;;11.85;67.39;101831.03;5184234;28;20045;-84
2023/05/02 08:40:07;;;;;;;0.20;0.20;;;;;;;11.81;66.38;101834.59;5186693;28;20041;-89
2023/05/02 08:42:57;;;;;;;2.08;1.13;;;;;;;11.74;67.38;101830.31;5206823;28;20037;-87
2023/05/02 08:45:50;;;;;;;0.20;0.20;;;;;;;11.95;66.78;101839.66;5197673;28;20055;-86
2023/05/02 08:48:44;;;;;;;0.30;0.30;;;;;;;11.81;66.31;101839.84;5190258;28;20415;-88
2023/05/02 08:51:36;;;;;;;1.00;0.88;;;;;;;11.89;67.04;101842.38;5184636;28;20094;-85
2023/05/02 08:54:27;;;;;;;0.35;0.35;;;;;;;11.91;66.43;101846.72;5192894;28;20475;-87
2023/05/02 08:57:18;;;;;;;0.63;0.63;;;;;;;11.90;65.91;101849.38;5200217;28;20048;-84
2023/05/02 09:00:10;;;;;;;0.20;0.20;;;;;;;12.02;65.57;101854.47;5182532;28;20485;-85
2023/05/02 09:03:17;;;;;;;0.95;0.95;;;;;;;11.96;66.14;101844.88;5180493;28;20066;-85
2023/05/02 09:06:14;;;;;;;0.20;0.20;;;;;;;12.15;66.21;101859.56;5197914;28;20044;-86
2023/05/02 09:09:04;;;;;;;0.32;0.32;;;;;;;12.13;65.58;101862.19;5180821;28;20092;-86
2023/05/02 09:11:55;;;;;;;0.20;0.20;;;;;;;12.25;65.44;101875.19;5189062;28;20504;-84
2023/05/02 09:14:46;;;;;;;0.63;0.55;;;;;;;12.12;65.91;101869.25;5184035;28;20033;-86
2023/05/02 09:17:41;;;;;;;0.30;0.30;;;;;;;12.40;65.70;101873.19;5183615;28;20774;-85
2023/05/02 09:20:39;;;;;;;1.42;0.75;;;;;;;12.26;66.00;101878.66;5196820;28;20029;-86
2023/05/02 09:23:45;;;;;;;2.40;0.98;;;;;;;12.09;65.91;101877.16;5187684;28;20093;-86
2023/05/02 09:26:36;;;;;;;1.30;0.45;;;;;;;12.39;65.33;101885.50;5187220;28;20091;-87
2023/05/02 09:29:34;;;;;;;0.65;0.52;;;;;;;12.37;64.61;101881.13;5184715;28;20060;-85
2023/05/02 09:32:44;;;;;;;0.20;0.20;;;;;;;12.40;65.66;101888.97;5214501;28;20284;-86
2023/05/02 09:35:35;;;;;;;1.55;1.45;;;;;;;12.06;66.93;101887.75;5195214;28;20042;-85
2023/05/02 09:38:25;;;;;;;1.02;0.68;;;;;;;11.96;66.71;101899.25;5190471;28;20088;-86
2023/05/02 09:41:20;;;;;;;0.47;0.47;;;;;;;11.93;65.09;101902.81;5188557;28;20046;-83
2023/05/02 09:44:17;;;;;;;0.50;0.50;;;;;;;12.10;64.35;101912.25;5185273;28;20038;-85
2023/05/02 09:47:08;;;;;;;0.75;0.73;;;;;;;11.95;62.95;101911.53;5184672;28;20041;-85
2023/05/02 09:49:58;;;;;;;0.75;0.75;;;;;;;12.18;63.63;101920.91;5198540;28;20499;-85
2023/05/02 09:53:01;;;;;;;3.67;1.38;;;;;;;11.98;62.18;101929.09;5194992;28;20046;-83
2023/05/02 09:56:00;;;;;;;0.43;0.43;;;;;;;12.22;63.73;101925.22;5179826;28;20080;-85
2023/05/02 09:58:50;;;;;;;0.63;0.55;;;;;;;12.11;63.06;101935.00;5211316;28;20041;-85
2023/05/02 10:01:42;;;;;;;0.30;0.30;;;;;;;12.24;63.88;101931.34;5182109;28;20052;-84
2023/05/02 10:04:33;;;;;;;0.68;0.68;;;;;;;12.28;64.03;101929.53;5197688;28;20041;-87
2023/05/02 10:07:25;;;;;;;0.40;0.40;;;;;;;12.35;64.13;101935.56;5199921;28;20041;-84
2023/05/02 10:10:17;;;;;;;0.30;0.30;;;;;;;11.91;63.16;101944.03;5191267;28;20079;-83
2023/05/02 10:13:08;;;;;;;0.90;0.90;;;;;;;11.87;62.61;101947.56;5199945;28;20044;-85
2023/05/02 10:16:01;;;;;;;0.50;0.50;;;;;;;12.09;62.35;101949.97;5183398;28;21293;-84
2023/05/02 10:19:06;;;;;;;1.95;1.05;;;;;;;12.29;62.76;101947.06;5180158;28;20051;-85
2023/05/02 10:21:58;;;;;;;0.68;0.68;;;;;;;12.05;62.46;101949.16;5179641;28;20049;-84
2023/05/02 10:24:49;;;;;;;1.23;0.82;;;;;;;12.05;61.90;101949.16;5187382;28;20116;-84
2023/05/02 10:27:40;;;;;;;6.78;1.48;;;;;;;12.22;62.75;101954.16;5182698;28;20483;-85
2023/05/02 10:30:34;;;;;;;0.43;0.43;;;;;;;11.77;62.40;101953.88;5192550;28;20110;-88
2023/05/02 10:33:25;;;;;;;0.73;0.73;;;;;;;12.14;63.17;101947.28;5190112;28;20033;-89
2023/05/02 10:36:21;;;;;;;0.22;0.22;;;;;;;12.37;62.82;101946.94;5199795;28;20614;-85
2023/05/02 10:39:12;;;;;;;0.57;0.57;;;;;;;12.28;62.75;101954.06;5189295;28;20041;-84
2023/05/02 10:42:05;;;;;;;2.40;2.20;;;;;;;12.48;63.04;101952.06;5187090;28;20041;-85
2023/05/02 10:44:56;;;;;;;9.43;1.60;;;;;;;12.56;62.42;101947.53;5191835;28;20416;-85
2023/05/02 10:47:47;;;;;;;0.38;0.38;;;;;;;12.41;63.54;101948.63;5180976;28;20034;-85
2023/05/02 10:50:50;;;;;;;5.07;1.25;;;;;;;12.48;63.63;101941.53;5201056;28;20484;-86
2023/05/02 10:53:43;;;;;;;1.45;1.27;;;;;;;12.77;63.05;101943.66;5184216;28;20049;-88
2023/05/02 10:56:34;;;;;;;0.73;0.73;;;;;;;12.94;63.23;101943.38;5186058;28;20038;-85
2023/05/02 10:59:27;;;;;;;0.82;0.82;;;;;;;13.09;63.21;101936.97;5188233;28;20057;-87
2023/05/02 11:02:27;;;;;;;0.40;0.40;;;;;;;13.12;62.24;101938.69;5188316;28;20030;-88
2023/05/02 11:05:17;;;;;;;0.73;0.73;;;;;;;13.21;61.80;101934.09;5194025;28;20068;-85
2023/05/02 11:08:14;;;;;;;0.75;0.75;;;;;;;13.02;58.42;101938.84;5185030;28;20068;-86
2023/05/02 11:11:41;;;;;;;0.30;0.30;;;;;;;13.35;59.21;101932.97;5189692;28;20289;-84
2023/05/02 11:14:37;;;;;;;0.40;0.40;;;;;;;13.28;58.69;101934.88;5198549;28;20038;-85
2023/05/02 11:17:58;;;;;;;0.70;0.70;;;;;;;13.20;58.84;101932.38;5195565;28;20067;-86
2023/05/02 11:20:49;;;;;;;1.00;1.00;;;;;;;13.22;59.08;101933.22;5198708;28;20121;-86
2023/05/02 11:23:41;;;;;;;0.47;0.47;;;;;;;13.47;59.57;101940.69;5181805;28;20143;-84
2023/05/02 11:26:32;;;;;;;0.65;0.65;;;;;;;13.07;56.00;101941.41;5187490;28;20071;-85
2023/05/02 11:29:52;;;;;;;0.40;0.40;;;;;;;13.38;57.50;101931.19;5198596;28;20044;-82
2023/05/02 11:32:48;;;;;;;0.40;0.40;;;;;;;13.57;57.42;101935.22;5182864;28;20056;-83
2023/05/02 11:35:41;;;;;;;1.08;0.65;;;;;;;13.68;56.13;101927.94;5184593;28;20057;-84
2023/05/02 11:38:38;;;;;;;0.30;0.30;;;;;;;13.54;54.65;101936.16;5186159;28;20063;-84
2023/05/02 11:41:41;;;;;;;0.40;0.40;;;;;;;13.77;56.11;101938.31;5188157;28;20041;-85
2023/05/02 11:44:32;;;;;;;0.38;0.38;;;;;;;13.88;55.75;101937.22;5186269;28;20029;-83
2023/05/02 11:47:26;;;;;;;0.60;0.60;;;;;;;13.78;55.35;101944.47;5190479;28;20033;-84
2023/05/02 11:50:17;;;;;;;1.13;1.05;;;;;;;13.78;54.54;101945.31;5187288;28;20556;-84
2023/05/02 11:53:21;;;;;;;1.67;1.25;;;;;;;13.89;54.27;101946.88;5186623;28;20125;-82
2023/05/02 11:56:12;;;;;;;0.88;0.47;;;;;;;13.91;53.92;101950.34;5184693;28;20025;-86
2023/05/02 11:59:03;;;;;;;1.00;0.90;;;;;;;13.58;53.58;101958.91;5205372;28;20245;-88
2023/05/02 12:01:54;;;;;;;3.75;1.85;;;;;;;13.65;52.73;101972.88;5189685;28;20132;-82
2023/05/02 12:04:45;;;;;;;0.30;0.30;;;;;;;13.50;51.53;101964.38;5185820;28;20054;-85
2023/05/02 12:07:38;;;;;;;1.85;1.25;;;;;;;13.65;51.97;101967.59;5183159;28;20539;-83
2023/05/02 12:10:36;;;;;;;0.95;0.95;;;;;;;13.61;50.98;101973.81;5192982;28;20026;-85
2023/05/02 12:13:28;;;;;;;0.45;0.45;;;;;;;13.82;51.43;101967.22;5197380;28;20091;-86
2023/05/02 12:16:19;;;;;;;0.55;0.50;;;;;;;13.95;51.12;101974.00;5192528;28;20041;-83
2023/05/02 12:19:11;;;;;;;0.38;0.38;;;;;;;13.98;50.94;101973.06;5189684;28;20049;-84
2023/05/02 12:22:03;;;;;;;0.43;0.43;;;;;;;14.08;51.25;101974.63;5187884;28;20118;-85
2023/05/02 12:24:54;;;;;;;0.57;0.57;;;;;;;14.03;51.43;101980.88;5188673;28;20068;-85
2023/05/02 12:28:11;;;;;;;0.43;0.43;;;;;;;14.07;50.53;101977.25;5179290;28;20068;-84
2023/05/02 12:31:09;;;;;;;0.22;0.22;;;;;;;14.07;49.71;101970.22;5180743;28;20025;-86
2023/05/02 12:34:00;;;;;;;0.63;0.60;;;;;;;14.17;49.54;101979.66;5184645;28;20037;-83
2023/05/02 12:36:51;;;;;;;3.20;1.75;;;;;;;14.21;48.53;101984.88;5187460;28;20049;-87
2023/05/02 12:39:42;;;;;;;0.43;0.43;;;;;;;14.25;49.89;101986.56;5188129;28;20049;-84
2023/05/02 12:42:33;;;;;;;0.45;0.45;;;;;;;14.23;48.95;101988.38;5189467;28;20112;-86
2023/05/02 12:45:27;;;;;;;0.63;0.63;;;;;;;14.21;50.06;101998.09;5190750;28;20033;-87
2023/05/02 12:48:26;;;;;;;0.38;0.38;;;;;;;14.37;48.31;102001.25;5183521;28;20044;-85
2023/05/02 12:51:23;;;;;;;0.40;0.40;;;;;;;14.60;47.41;101990.16;5205071;28;20039;-87
2023/05/02 12:54:20;;;;;;;0.43;0.43;;;;;;;14.59;48.98;102004.25;5198644;28;20030;-84
2023/05/02 12:57:22;;;;;;;0.50;0.50;;;;;;;14.67;48.73;102014.69;5188705;28;20042;-85
2023/05/02 13:00:15;;;;;;;0.40;0.40;;;;;;;14.55;48.37;102010.53;5185177;28;20025;-87
2023/05/02 13:03:07;;;;;;;0.20;0.20;;;;;;;14.39;47.58;102016.16;5197817;28;20070;-88
2023/05/02 13:05:57;;;;;;;0.50;0.50;;;;;;;14.73;48.97;102011.91;5199200;28;20225;-87
2023/05/02 13:08:48;;;;;;;0.50;0.50;;;;;;;14.97;46.19;102013.09;5201939;28;20101;-89
2023/05/02 13:11:39;;;;;;;0.50;0.50;;;;;;;15.15;46.41;102016.16;5203441;28;20112;-90
2023/05/02 13:14:30;;;;;;;0.28;0.28;;;;;;;15.11;46.58;102016.25;5196166;28;20025;-88
2023/05/02 13:17:21;;;;;;;0.95;0.95;;;;;;;15.19;48.05;102012.53;5195793;28;20053;-90
2023/05/02 13:20:12;;;;;;;0.88;0.88;;;;;;;15.27;45.68;102005.25;5216297;28;20104;-89
2023/05/02 13:23:02;;;;;;;0.20;0.20;;;;;;;15.19;45.66;102016.06;5205968;28;20029;-89
2023/05/02 13:25:53;;;;;;;1.00;0.63;;;;;;;15.12;46.59;102017.13;5199590;28;20037;-85